Gembloux, Belgium
Current Conditions -  °F | °C
As of 11:20 PM on Friday 24 Oct 2014 (Local Time) from EBCI Reporting Station
Light Rain Light Rain  
Wind Chill: 50°   Ceiling: 1900
Heat Index: 50°   Visibility: 4mi
Dew Point: 50°   Wind: 12mph
Humidity: 100%   Direction: 200°SSW
Pressure: 30.06"   Gusts: NA
Location:  50.56°N, 4.7°E
Report Text: EBCI 242120Z 20010KT 6000 -RA SCT007 BKN019 10/10 Q1018 NOSIG
Loading
Personal Weather Stations






























Interactive Weather Map New forecast layout! Learn more

10-Day Weather Forecast

Advertisements
Track Severe Weather on mobile